Time;durP1;ratioP1;P1;durP2;ratioP2;P2;SDS_P1;SDS_P2;PMS_P1;PMS_P2;Temp;Humidity;BMP_temperature;BMP_pressure;BME280_temperature;BME280_humidity;BME280_pressure;Samples;Min_cycle;Max_cycle;Signal;HPM_P1;HPM_P2
2021/11/14 00:01:32;;;;;;;9.48;4.38;;;22.00;55.40;;;;;;5263335;28;20043;-52
2021/11/14 00:04:09;;;;;;;10.68;4.45;;;22.00;55.30;;;;;;5259161;27;20055;-56
2021/11/14 00:07:00;;;;;;;6.80;4.22;;;22.00;55.30;;;;;;5255342;28;20047;-55
2021/11/14 00:09:33;;;;;;;8.75;3.67;;;22.00;55.30;;;;;;5225033;28;20543;-59
2021/11/14 00:12:06;;;;;;;8.07;3.88;;;22.00;55.40;;;;;;5241800;28;25136;-56
2021/11/14 00:14:38;;;;;;;15.20;4.40;;;22.00;55.50;;;;;;5251892;28;20768;-57
2021/11/14 00:17:11;;;;;;;11.38;4.00;;;22.00;55.60;;;;;;5242509;28;20048;-56
2021/11/14 00:19:44;;;;;;;14.10;4.97;;;22.00;55.50;;;;;;5251982;28;20451;-49
2021/11/14 00:22:18;;;;;;;22.75;4.10;;;22.00;55.60;;;;;;5258168;27;20047;-59
2021/11/14 00:24:51;;;;;;;18.45;4.80;;;22.00;55.60;;;;;;5252438;27;20117;-55
2021/11/14 00:27:24;;;;;;;11.50;3.67;;;22.00;55.60;;;;;;5238041;28;20052;-54
2021/11/14 00:29:57;;;;;;;17.15;4.38;;;22.00;55.60;;;;;;5237937;28;20051;-52
2021/11/14 00:32:29;;;;;;;10.00;4.03;;;22.00;55.60;;;;;;5235347;28;20040;-52
2021/11/14 00:35:03;;;;;;;9.25;3.85;;;22.00;55.50;;;;;;5259221;28;20047;-52
2021/11/14 00:37:37;;;;;;;12.02;4.28;;;22.00;55.50;;;;;;5260086;28;20407;-56
2021/11/14 00:40:13;;;;;;;8.80;3.53;;;22.00;55.40;;;;;;5255232;28;20566;-53
2021/11/14 00:42:46;;;;;;;9.57;3.53;;;22.00;55.40;;;;;;5243064;28;20058;-53
2021/11/14 00:45:19;;;;;;;10.30;4.10;;;22.00;55.40;;;;;;5252734;28;20051;-55
2021/11/14 00:47:51;;;;;;;7.23;3.67;;;22.00;55.30;;;;;;5250359;28;20043;-57
2021/11/14 00:50:24;;;;;;;9.45;3.50;;;22.00;55.30;;;;;;5256716;28;20289;-51
2021/11/14 00:52:59;;;;;;;12.47;3.70;;;22.00;55.30;;;;;;5251448;28;20063;-50
2021/11/14 00:55:34;;;;;;;7.97;3.40;;;21.90;55.30;;;;;;5251659;28;20329;-52
2021/11/14 00:58:06;;;;;;;7.28;3.42;;;22.00;55.30;;;;;;5251046;28;20071;-54
2021/11/14 01:00:40;;;;;;;4.85;3.20;;;22.00;55.30;;;;;;5247431;28;20425;-60
2021/11/14 01:03:16;;;;;;;;;;;21.90;55.20;;;;;;5235557;28;20054;-55
2021/11/14 01:05:49;;;;;;;6.38;3.20;;;21.90;55.30;;;;;;5258015;28;19939;-50
2021/11/14 01:08:22;;;;;;;5.63;3.47;;;21.90;55.30;;;;;;5247103;27;20059;-52
2021/11/14 01:10:57;;;;;;;10.90;3.67;;;21.90;55.30;;;;;;5262172;28;20040;-50
2021/11/14 01:13:30;;;;;;;11.18;3.70;;;21.90;55.30;;;;;;5247316;28;20051;-51
2021/11/14 01:16:06;;;;;;;5.75;2.80;;;21.90;55.90;;;;;;5252853;28;20090;-55
2021/11/14 01:18:39;;;;;;;5.82;3.33;;;21.90;55.30;;;;;;5251493;28;20051;-55
2021/11/14 01:21:16;;;;;;;5.07;3.15;;;21.90;55.30;;;;;;5254465;28;20440;-59
2021/11/14 01:24:07;;;;;;;8.52;3.83;;;21.90;55.30;;;;;;5251808;28;20688;-55
2021/11/14 01:26:40;;;;;;;5.90;3.10;;;21.90;55.30;;;;;;5254393;28;20193;-57
2021/11/14 01:29:12;;;;;;;3.73;3.10;;;21.90;55.20;;;;;;5254481;28;20055;-50
2021/11/14 01:31:44;;;;;;;5.15;3.20;;;21.90;55.30;;;;;;5254785;28;20048;-51
2021/11/14 01:34:17;;;;;;;6.00;2.85;;;21.90;55.30;;;;;;5252425;28;21015;-55
2021/11/14 01:36:50;;;;;;;10.00;3.20;;;21.90;55.30;;;;;;5259822;28;20467;-53
2021/11/14 01:39:22;;;;;;;4.35;3.00;;;21.90;55.30;;;;;;5260230;28;20054;-51
2021/11/14 01:41:55;;;;;;;4.35;2.75;;;21.90;55.30;;;;;;5261716;28;20054;-48
2021/11/14 01:44:27;;;;;;;5.00;2.83;;;21.90;55.30;;;;;;5250568;28;20122;-50
2021/11/14 01:47:00;;;;;;;7.30;3.22;;;21.90;55.30;;;;;;5257293;28;20046;-51
2021/11/14 01:49:32;;;;;;;6.60;3.17;;;21.90;55.30;;;;;;5250883;28;20044;-52
2021/11/14 01:52:05;;;;;;;6.83;3.73;;;21.90;55.30;;;;;;5254795;28;20306;-54
2021/11/14 01:54:37;;;;;;;6.03;3.03;;;21.90;55.30;;;;;;5248562;28;20538;-50
2021/11/14 01:57:10;;;;;;;3.88;2.85;;;21.90;55.30;;;;;;5251910;28;20035;-50
2021/11/14 01:59:43;;;;;;;4.50;2.50;;;21.90;55.30;;;;;;5224073;28;20055;-53
2021/11/14 02:02:15;;;;;;;4.13;2.93;;;21.90;55.30;;;;;;5225083;28;20059;-57
2021/11/14 02:04:49;;;;;;;3.53;2.70;;;21.90;55.40;;;;;;5230297;28;20042;-52
2021/11/14 02:07:21;;;;;;;3.95;2.78;;;21.90;55.20;;;;;;5238365;28;20306;-53
2021/11/14 02:09:54;;;;;;;4.15;2.88;;;21.90;55.20;;;;;;5241387;28;20032;-59
2021/11/14 02:12:45;;;;;;;2.85;2.53;;;21.90;55.20;;;;;;5243762;28;20072;-56
2021/11/14 02:15:18;;;;;;;3.13;2.63;;;21.90;55.20;;;;;;5238735;28;20047;-55
2021/11/14 02:17:50;;;;;;;4.20;2.78;;;21.90;55.20;;;;;;5222869;28;20059;-55
2021/11/14 02:20:24;;;;;;;4.53;2.83;;;21.90;55.20;;;;;;5227939;28;20047;-58
2021/11/14 02:22:56;;;;;;;4.35;2.70;;;21.90;55.20;;;;;;5238660;28;20043;-54
2021/11/14 02:25:29;;;;;;;3.37;2.60;;;21.90;55.20;;;;;;5228953;28;20428;-51
2021/11/14 02:28:02;;;;;;;6.95;2.67;;;21.90;55.10;;;;;;5221559;28;20420;-55
2021/11/14 02:30:34;;;;;;;4.35;2.55;;;21.80;55.10;;;;;;5234888;28;20456;-58
2021/11/14 02:33:08;;;;;;;3.08;2.30;;;21.90;55.20;;;;;;5202385;28;20047;-48
2021/11/14 02:35:47;;;;;;;4.07;2.53;;;21.80;55.10;;;;;;5222537;28;20802;-54
2021/11/14 02:38:21;;;;;;;5.65;2.55;;;21.90;55.20;;;;;;5210610;28;20074;-55
2021/11/14 02:40:53;;;;;;;4.90;2.60;;;21.80;55.20;;;;;;5234346;28;20051;-53
2021/11/14 02:43:26;;;;;;;6.13;2.73;;;21.80;55.20;;;;;;5233941;28;20059;-54
2021/11/14 02:45:59;;;;;;;4.38;2.63;;;21.80;55.20;;;;;;5227475;28;20036;-58
2021/11/14 02:48:32;;;;;;;3.67;2.70;;;21.90;55.30;;;;;;5230230;28;20048;-52
2021/11/14 02:51:26;;;;;;;6.30;2.67;;;21.80;55.30;;;;;;5225094;28;20541;-55
2021/11/14 02:54:00;;;;;;;4.22;2.58;;;21.90;55.40;;;;;;5235133;28;20047;-53
2021/11/14 02:56:33;;;;;;;3.47;2.72;;;21.80;55.30;;;;;;5235767;28;20052;-55
2021/11/14 02:59:24;;;;;;;5.35;2.70;;;21.80;55.30;;;;;;5222490;28;20051;-55
2021/11/14 03:01:57;;;;;;;3.58;2.75;;;21.80;55.30;;;;;;5231795;28;20051;-59
2021/11/14 03:04:31;;;;;;;5.75;2.63;;;21.80;56.00;;;;;;5230361;28;20047;-59
2021/11/14 03:07:03;;;;;;;4.03;2.38;;;21.80;55.30;;;;;;5232032;28;20114;-53
2021/11/14 03:09:54;;;;;;;4.55;2.83;;;21.80;55.30;;;;;;5241275;28;20593;-51
2021/11/14 03:12:27;;;;;;;3.17;2.20;;;21.80;55.30;;;;;;5230721;28;20051;-58
2021/11/14 03:15:18;;;;;;;3.88;2.30;;;21.80;55.30;;;;;;5245694;27;20055;-52
2021/11/14 03:18:09;;;;;;;5.97;2.58;;;21.80;55.30;;;;;;5229956;28;20047;-51
2021/11/14 03:20:45;;;;;;;5.37;2.80;;;21.80;55.30;;;;;;5227482;28;20055;-55
2021/11/14 03:23:19;;;;;;;3.83;2.45;;;21.80;55.20;;;;;;5231062;28;20052;-54
2021/11/14 03:25:52;;;;;;;2.70;2.38;;;21.80;55.20;;;;;;5212943;28;20051;-54
2021/11/14 03:28:26;;;;;;;4.13;2.47;;;21.90;55.20;;;;;;5229315;28;20056;-59
2021/11/14 03:30:59;;;;;;;;;;;21.80;55.10;;;;;;5234691;28;20044;-50
2021/11/14 03:33:31;;;;;;;4.35;2.50;;;21.80;55.50;;;;;;5224388;28;20310;-55
2021/11/14 03:36:08;;;;;;;3.55;2.05;;;21.80;55.30;;;;;;5232814;28;20051;-54
2021/11/14 03:38:44;;;;;;;3.38;2.53;;;21.80;55.20;;;;;;5233400;28;20098;-55
2021/11/14 03:41:21;;;;;;;3.55;2.28;;;21.80;55.10;;;;;;5233804;28;21523;-50
2021/11/14 03:43:54;;;;;;;3.55;2.47;;;21.80;55.10;;;;;;5238727;28;20059;-51
2021/11/14 03:46:26;;;;;;;4.72;2.80;;;21.80;55.10;;;;;;5239591;28;20039;-50
2021/11/14 03:48:59;;;;;;;2.88;2.20;;;21.80;55.10;;;;;;5237742;28;20762;-51
2021/11/14 03:51:32;;;;;;;6.93;2.80;;;21.80;55.10;;;;;;5232247;28;21319;-57
2021/11/14 03:54:05;;;;;;;4.77;2.67;;;21.80;55.10;;;;;;5231642;28;20734;-51
2021/11/14 03:56:37;;;;;;;4.07;2.20;;;21.80;55.10;;;;;;5236158;28;20710;-52
2021/11/14 03:59:09;;;;;;;2.58;2.10;;;21.80;55.10;;;;;;5214675;28;20435;-54
2021/11/14 04:01:43;;;;;;;2.72;2.08;;;21.80;55.00;;;;;;5228032;28;20700;-52
2021/11/14 04:04:15;;;;;;;;;;;21.80;55.00;;;;;;5233967;28;20109;-52
2021/11/14 04:06:48;;;;;;;6.72;2.55;;;21.80;55.00;;;;;;5230050;28;19927;-50
2021/11/14 04:09:39;;;;;;;3.08;2.08;;;21.80;55.00;;;;;;5240473;28;20042;-53
2021/11/14 04:12:11;;;;;;;4.63;2.38;;;21.80;55.00;;;;;;5233777;28;20040;-52
2021/11/14 04:14:44;;;;;;;2.88;2.10;;;21.80;55.10;;;;;;5239847;28;20221;-51
2021/11/14 04:17:17;;;;;;;2.92;1.90;;;21.80;55.60;;;;;;5231216;28;20039;-54
2021/11/14 04:19:50;;;;;;;3.20;2.08;;;21.80;55.00;;;;;;5235846;28;20044;-53
2021/11/14 04:22:22;;;;;;;3.53;2.40;;;21.80;55.00;;;;;;5228851;28;20131;-55
2021/11/14 04:24:55;;;;;;;2.92;2.08;;;21.80;55.00;;;;;;5231998;28;20078;-52
2021/11/14 04:27:27;;;;;;;3.35;2.22;;;21.80;55.10;;;;;;5234285;28;20048;-52
2021/11/14 04:30:00;;;;;;;4.97;2.00;;;21.80;55.00;;;;;;5224773;28;20054;-58
2021/11/14 04:32:33;;;;;;;3.63;2.35;;;21.80;55.10;;;;;;5242435;28;20044;-54
2021/11/14 04:35:07;;;;;;;2.75;2.17;;;21.80;55.00;;;;;;5238527;28;20811;-53
2021/11/14 04:37:39;;;;;;;5.18;2.40;;;21.80;55.10;;;;;;5238155;28;20044;-58
2021/11/14 04:40:12;;;;;;;4.13;1.90;;;21.80;55.00;;;;;;5233753;28;20048;-58
2021/11/14 04:42:45;;;;;;;3.33;1.80;;;21.80;55.00;;;;;;5243791;28;20051;-50
2021/11/14 04:45:18;;;;;;;4.20;2.22;;;21.80;55.00;;;;;;5215061;28;20051;-54
2021/11/14 04:47:51;;;;;;;4.85;2.10;;;21.80;55.00;;;;;;5242012;28;20058;-53
2021/11/14 04:50:23;;;;;;;3.05;2.00;;;21.80;55.00;;;;;;5234485;28;20052;-49
2021/11/14 04:52:56;;;;;;;6.07;2.30;;;21.80;55.70;;;;;;5235325;28;20051;-53
2021/11/14 04:55:29;;;;;;;3.20;1.90;;;21.80;55.00;;;;;;5236416;28;20044;-51
2021/11/14 04:58:03;;;;;;;6.28;1.75;;;21.80;55.00;;;;;;5234875;28;20048;-51
2021/11/14 05:00:43;;;;;;;5.78;2.28;;;21.80;55.10;;;;;;5245922;28;20062;-52
2021/11/14 05:03:34;;;;;;;4.32;1.98;;;21.80;55.10;;;;;;5234857;28;20821;-49
2021/11/14 05:06:09;;;;;;;2.33;2.00;;;21.80;55.00;;;;;;5222788;28;20088;-58
2021/11/14 05:08:42;;;;;;;4.68;2.25;;;21.80;55.00;;;;;;5241877;28;20432;-55
2021/11/14 05:11:14;;;;;;;2.72;2.00;;;21.80;55.00;;;;;;5240310;27;20052;-49
2021/11/14 05:13:47;;;;;;;2.80;2.00;;;21.80;55.00;;;;;;5241954;28;20568;-58
2021/11/14 05:16:19;;;;;;;2.50;2.05;;;21.80;54.90;;;;;;5238123;28;20395;-47
2021/11/14 05:19:11;;;;;;;3.03;2.08;;;21.80;54.90;;;;;;5235551;28;20051;-52
2021/11/14 05:21:43;;;;;;;2.97;2.13;;;21.80;54.90;;;;;;5229194;27;21341;-50
2021/11/14 05:24:15;;;;;;;3.10;2.25;;;21.70;54.90;;;;;;5225586;28;20050;-56
2021/11/14 05:26:50;;;;;;;3.10;1.90;;;21.70;54.90;;;;;;5225013;28;20488;-55
2021/11/14 05:29:23;;;;;;;2.22;1.58;;;21.80;54.90;;;;;;5235351;28;20044;-56
2021/11/14 05:31:55;;;;;;;2.58;1.80;;;21.80;54.90;;;;;;5218596;28;20071;-52
2021/11/14 05:34:28;;;;;;;1.98;1.60;;;21.80;54.80;;;;;;5233613;28;20044;-54
2021/11/14 05:37:00;;;;;;;2.60;2.10;;;21.80;54.90;;;;;;5233564;28;20031;-59
2021/11/14 05:39:33;;;;;;;2.08;1.88;;;21.80;54.80;;;;;;5226762;27;20051;-56
2021/11/14 05:42:06;;;;;;;2.83;2.15;;;21.80;54.80;;;;;;5214713;28;21123;-50
2021/11/14 05:44:38;;;;;;;4.20;2.07;;;21.80;54.80;;;;;;5243209;28;20055;-54
2021/11/14 05:47:11;;;;;;;4.05;2.10;;;21.90;54.80;;;;;;5235907;28;20289;-60
2021/11/14 05:49:43;;;;;;;4.78;1.73;;;21.80;54.80;;;;;;5228824;28;20153;-56
2021/11/14 05:52:16;;;;;;;2.63;2.00;;;21.90;54.70;;;;;;5202861;28;20044;-60
2021/11/14 05:54:48;;;;;;;2.70;2.08;;;21.90;54.70;;;;;;5236513;28;26022;-57
2021/11/14 05:57:21;;;;;;;3.90;2.13;;;21.90;54.60;;;;;;5235738;28;20050;-54
2021/11/14 06:00:06;;;;;;;2.53;1.80;;;21.90;54.60;;;;;;5232707;27;20044;-54
2021/11/14 06:02:44;;;;;;;2.92;2.00;;;21.90;54.60;;;;;;5237915;28;20068;-55
2021/11/14 06:05:17;;;;;;;3.40;2.25;;;22.00;54.70;;;;;;5226624;28;20113;-59
2021/11/14 06:07:50;;;;;;;8.02;2.63;;;22.00;54.80;;;;;;5207272;28;20047;-52
2021/11/14 06:10:22;;;;;;;2.33;1.73;;;22.00;54.80;;;;;;5233492;28;20051;-58
2021/11/14 06:12:55;;;;;;;5.70;1.95;;;22.00;54.70;;;;;;5233058;28;20703;-52
2021/11/14 06:15:27;;;;;;;4.20;2.60;;;22.00;54.70;;;;;;5235733;28;20044;-58
2021/11/14 06:18:00;;;;;;;3.42;2.17;;;22.00;54.70;;;;;;5228358;28;20309;-51
2021/11/14 06:20:32;;;;;;;4.47;2.10;;;22.00;54.70;;;;;;5233474;28;20082;-56
2021/11/14 06:23:06;;;;;;;3.28;2.10;;;22.00;54.70;;;;;;5224959;28;22520;-50
2021/11/14 06:25:39;;;;;;;2.85;2.10;;;22.00;54.70;;;;;;5230219;28;20050;-49
2021/11/14 06:28:11;;;;;;;3.72;2.10;;;22.00;54.60;;;;;;5232302;28;20178;-57
2021/11/14 06:30:43;;;;;;;3.03;2.13;;;22.00;54.60;;;;;;5236427;28;20748;-52
2021/11/14 06:33:16;;;;;;;3.65;2.40;;;22.00;54.60;;;;;;5241515;28;20047;-50
2021/11/14 06:35:48;;;;;;;3.85;2.40;;;22.00;54.60;;;;;;5236854;28;20048;-54
2021/11/14 06:38:21;;;;;;;3.80;2.20;;;22.00;54.60;;;;;;5240959;28;20044;-50
2021/11/14 06:40:53;;;;;;;3.85;2.58;;;22.00;54.60;;;;;;5220643;28;20075;-55
2021/11/14 06:43:26;;;;;;;8.63;2.50;;;22.10;54.60;;;;;;5239971;28;20423;-52
2021/11/14 06:45:59;;;;;;;8.27;2.20;;;22.10;54.60;;;;;;5231780;28;20431;-53
2021/11/14 06:48:32;;;;;;;5.03;2.15;;;22.10;54.60;;;;;;5202705;28;20296;-57
2021/11/14 06:51:05;;;;;;;6.38;2.55;;;22.10;54.60;;;;;;5232621;28;20050;-52
2021/11/14 06:53:37;;;;;;;4.80;2.20;;;22.10;54.60;;;;;;5235795;28;20904;-54
2021/11/14 06:56:28;;;;;;;4.53;2.22;;;22.10;54.60;;;;;;5229513;28;20050;-54
2021/11/14 06:59:01;;;;;;;8.40;2.38;;;22.10;54.70;;;;;;5240894;28;20052;-49
2021/11/14 07:01:33;;;;;;;8.23;1.73;;;22.10;54.70;;;;;;5226470;28;20051;-54
2021/11/14 07:04:06;;;;;;;9.82;2.38;;;22.10;54.70;;;;;;5233665;28;20753;-57
2021/11/14 07:06:38;;;;;;;3.45;2.00;;;22.10;54.80;;;;;;5240754;28;20044;-54
2021/11/14 07:09:10;;;;;;;6.97;2.17;;;22.20;54.90;;;;;;5243808;28;20356;-58
2021/11/14 07:11:43;;;;;;;7.57;2.22;;;22.20;54.90;;;;;;5230993;28;20040;-53
2021/11/14 07:14:16;;;;;;;5.85;2.05;;;22.20;55.00;;;;;;5226669;28;21170;-52
2021/11/14 07:16:49;;;;;;;10.25;2.17;;;22.20;55.00;;;;;;5232914;28;20040;-56
2021/11/14 07:19:22;;;;;;;5.28;2.42;;;22.20;55.00;;;;;;5230480;27;20701;-52
2021/11/14 07:21:56;;;;;;;5.00;1.98;;;22.20;55.00;;;;;;5238600;28;20051;-55
2021/11/14 07:24:28;;;;;;;6.63;2.20;;;22.20;55.10;;;;;;5233361;28;20048;-51
2021/11/14 07:27:01;;;;;;;7.13;2.38;;;22.20;55.10;;;;;;5224486;28;20419;-52
2021/11/14 07:29:33;;;;;;;3.60;1.80;;;22.20;55.10;;;;;;5232825;28;20055;-51
2021/11/14 07:32:07;;;;;;;8.70;2.10;;;22.20;55.10;;;;;;5217492;28;20048;-61
2021/11/14 07:34:40;;;;;;;3.15;2.00;;;22.20;55.10;;;;;;5223716;28;20062;-58
2021/11/14 07:37:13;;;;;;;3.47;1.83;;;22.20;55.10;;;;;;5222500;27;20036;-51
2021/11/14 07:39:45;;;;;;;4.65;2.33;;;22.20;55.10;;;;;;5225746;28;20075;-57
2021/11/14 07:42:17;;;;;;;5.47;1.85;;;22.20;55.20;;;;;;5219013;28;20040;-55
2021/11/14 07:44:50;;;;;;;5.38;2.40;;;22.20;55.20;;;;;;5235044;28;20492;-54
2021/11/14 07:47:23;;;;;;;6.53;2.10;;;22.20;55.20;;;;;;5233109;28;20404;-56
2021/11/14 07:49:56;;;;;;;8.15;2.28;;;22.20;55.20;;;;;;5234304;28;20498;-49
2021/11/14 07:52:29;;;;;;;4.22;1.88;;;22.20;55.20;;;;;;5201345;28;21004;-53
2021/11/14 07:55:02;;;;;;;7.20;1.83;;;22.20;55.30;;;;;;5209762;28;20048;-60
2021/11/14 07:57:38;;;;;;;8.50;1.75;;;22.20;55.30;;;;;;5227775;28;20427;-59
2021/11/14 08:00:17;;;;;;;5.15;1.85;;;22.20;55.40;;;;;;5211989;28;20043;-52
2021/11/14 08:02:50;;;;;;;5.22;2.00;;;22.20;55.30;;;;;;5233388;28;20067;-54
2021/11/14 08:05:23;;;;;;;7.15;2.13;;;22.20;55.30;;;;;;5217897;28;20040;-56
2021/11/14 08:07:55;;;;;;;9.32;1.98;;;22.20;55.40;;;;;;5225359;28;20071;-50
2021/11/14 08:10:29;;;;;;;6.65;2.80;;;22.30;55.40;;;;;;5223320;28;20531;-53
2021/11/14 08:13:02;;;;;;;5.55;2.08;;;22.30;55.50;;;;;;5227969;28;20060;-52
2021/11/14 08:15:36;;;;;;;5.85;2.08;;;22.30;55.70;;;;;;5231605;28;21084;-54
2021/11/14 08:18:27;;;;;;;6.53;1.95;;;22.20;55.70;;;;;;5226572;28;20051;-56
2021/11/14 08:21:00;;;;;;;5.68;2.63;;;22.30;55.70;;;;;;5201552;28;20056;-58
2021/11/14 08:23:32;;;;;;;4.60;2.20;;;22.30;55.70;;;;;;5228270;28;20597;-56
2021/11/14 08:26:05;;;;;;;8.35;2.20;;;22.30;55.60;;;;;;5231906;28;20047;-52
2021/11/14 08:28:38;;;;;;;8.57;2.47;;;22.30;55.50;;;;;;5229978;28;20048;-57
2021/11/14 08:31:15;;;;;;;6.45;2.55;;;22.30;55.50;;;;;;5223256;28;20500;-56
2021/11/14 08:33:49;;;;;;;3.85;2.10;;;22.30;55.40;;;;;;5216309;28;20525;-59
2021/11/14 08:36:21;;;;;;;7.53;2.60;;;22.30;55.40;;;;;;5225064;28;20051;-57
2021/11/14 08:38:55;;;;;;;5.67;2.30;;;22.30;55.40;;;;;;5220856;28;20035;-56
2021/11/14 08:41:27;;;;;;;;;;;22.30;55.40;;;;;;5208797;28;25046;-55
2021/11/14 08:44:00;;;;;;;11.02;2.72;;;22.20;55.30;;;;;;5229431;28;19928;-59
2021/11/14 08:46:34;;;;;;;9.02;3.78;;;22.30;55.40;;;;;;5215810;28;20055;-60
2021/11/14 08:49:06;;;;;;;;;;;22.30;55.30;;;;;;5199318;28;20571;-52
2021/11/14 08:51:38;;;;;;;12.45;4.60;;;22.20;55.30;;;;;;5208304;28;19927;-59
2021/11/14 08:54:11;;;;;;;16.80;5.60;;;22.30;55.40;;;;;;5225637;27;20106;-54
2021/11/14 08:56:43;;;;;;;13.50;7.03;;;22.30;55.40;;;;;;5227128;28;20052;-59
2021/11/14 08:59:16;;;;;;;22.38;8.15;;;22.30;55.00;;;;;;5219219;28;20048;-60
2021/11/14 09:01:49;;;;;;;21.40;8.80;;;22.30;54.70;;;;;;5206695;28;20852;-56
2021/11/14 09:04:22;;;;;;;18.33;8.60;;;22.20;54.50;;;;;;5193431;28;20090;-53
2021/11/14 09:06:55;;;;;;;21.52;8.43;;;22.30;54.70;;;;;;5223738;28;20894;-56
2021/11/14 09:09:28;;;;;;;26.08;8.75;;;22.30;54.80;;;;;;5217458;28;20039;-57
2021/11/14 09:12:00;;;;;;;17.48;7.40;;;22.30;55.00;;;;;;5227314;28;20060;-53
2021/11/14 09:14:51;;;;;;;16.52;7.63;;;22.30;55.20;;;;;;5218310;28;20051;-55
2021/11/14 09:17:29;;;;;;;24.75;8.25;;;22.30;55.40;;;;;;5212780;28;20555;-60
2021/11/14 09:20:01;;;;;;;15.63;7.13;;;22.40;55.70;;;;;;5210165;28;20064;-58
2021/11/14 09:22:35;;;;;;;19.63;7.43;;;22.40;55.80;;;;;;5217582;28;20044;-59
2021/11/14 09:25:08;;;;;;;;;;;22.40;55.90;;;;;;5232595;28;20090;-47
2021/11/14 09:27:41;;;;;;;15.18;7.25;;;22.40;56.10;;;;;;5212181;28;19935;-52
2021/11/14 09:30:15;;;;;;;15.00;7.30;;;22.40;56.20;;;;;;5219378;28;20043;-52
2021/11/14 09:32:48;;;;;;;16.55;6.93;;;22.40;56.30;;;;;;5220326;28;21087;-50
2021/11/14 09:35:21;;;;;;;16.73;7.70;;;22.50;56.40;;;;;;5223532;28;20036;-58
2021/11/14 09:37:53;;;;;;;15.37;7.00;;;22.50;56.60;;;;;;5227302;28;20051;-55
2021/11/14 09:40:26;;;;;;;13.13;6.70;;;22.50;56.80;;;;;;5223972;28;20048;-53
2021/11/14 09:42:58;;;;;;;15.73;7.50;;;22.50;56.80;;;;;;5222479;28;20181;-48
2021/11/14 09:45:33;;;;;;;19.17;6.88;;;22.50;56.70;;;;;;5223613;28;20242;-47
2021/11/14 09:48:07;;;;;;;21.77;7.05;;;22.50;56.80;;;;;;5238097;28;20519;-52
2021/11/14 09:50:39;;;;;;;13.10;6.65;;;22.60;56.90;;;;;;5222548;28;20054;-51
2021/11/14 09:53:12;;;;;;;15.30;7.22;;;22.50;56.90;;;;;;5240242;28;20424;-51
2021/11/14 09:55:45;;;;;;;;;;;22.50;56.90;;;;;;5244079;28;20044;-51
2021/11/14 09:58:18;;;;;;;17.13;7.40;;;22.50;57.00;;;;;;5238237;28;21992;-53
2021/11/14 10:00:52;;;;;;;18.33;7.25;;;22.50;56.90;;;;;;5249022;28;20445;-51
2021/11/14 10:03:25;;;;;;;11.82;5.95;;;22.50;56.90;;;;;;5252127;28;20511;-52
2021/11/14 10:05:57;;;;;;;16.75;6.63;;;22.50;56.80;;;;;;5242164;28;20047;-51
2021/11/14 10:08:39;;;;;;;16.10;7.37;;;22.50;56.80;;;;;;5231900;28;20463;-53
2021/11/14 10:11:11;;;;;;;20.27;6.90;;;22.50;56.90;;;;;;5244416;28;20039;-55
2021/11/14 10:13:49;;;;;;;15.60;6.63;;;22.50;56.90;;;;;;5239636;28;20424;-57
2021/11/14 10:16:22;;;;;;;15.32;6.70;;;22.50;56.90;;;;;;5234144;28;20393;-52
2021/11/14 10:19:06;;;;;;;14.13;6.90;;;22.50;56.90;;;;;;5240280;28;20044;-50
2021/11/14 10:21:40;;;;;;;12.32;6.10;;;22.50;56.80;;;;;;5237500;28;20063;-52
2021/11/14 10:24:12;;;;;;;;;;;22.50;56.90;;;;;;5217159;28;20048;-52
2021/11/14 10:26:45;;;;;;;17.73;7.20;;;22.50;57.00;;;;;;5226958;28;21030;-55
2021/11/14 10:29:19;;;;;;;12.98;6.15;;;22.50;57.00;;;;;;5234584;28;20051;-52
2021/11/14 10:31:52;;;;;;;13.30;6.60;;;22.50;57.30;;;;;;5213565;28;20786;-59
2021/11/14 10:34:25;;;;;;;14.75;6.63;;;22.50;56.90;;;;;;5227427;28;20538;-51
2021/11/14 10:36:57;;;;;;;17.83;6.53;;;22.50;56.60;;;;;;5234748;28;20056;-58
2021/11/14 10:39:38;;;;;;;14.50;6.50;;;22.60;56.60;;;;;;5236856;28;20043;-56
2021/11/14 10:42:15;;;;;;;11.07;6.13;;;22.60;56.30;;;;;;5234028;28;20501;-58
2021/11/14 10:44:52;;;;;;;11.52;6.15;;;22.60;56.20;;;;;;5227545;28;20055;-51
2021/11/14 10:47:25;;;;;;;14.02;7.13;;;22.60;56.00;;;;;;5225267;28;20143;-53
2021/11/14 10:50:06;;;;;;;17.25;6.32;;;22.60;56.00;;;;;;5218828;28;20040;-54
2021/11/14 10:52:59;;;;;;;12.43;6.25;;;22.60;56.20;;;;;;5239430;28;20036;-50
2021/11/14 10:55:57;;;;;;;19.77;6.80;;;22.60;56.00;;;;;;5220706;28;20052;-52
2021/11/14 10:58:31;;;;;;;14.68;6.55;;;22.60;55.90;;;;;;5186981;28;20317;-57
2021/11/14 11:01:08;;;;;;;8.85;5.85;;;22.60;56.00;;;;;;5193032;28;20056;-58
2021/11/14 11:03:59;;;;;;;13.52;5.93;;;22.60;56.30;;;;;;5161815;28;20343;-55
2021/11/14 11:06:32;;;;;;;11.30;6.45;;;22.60;56.20;;;;;;5195704;28;20056;-58
2021/11/14 11:09:06;;;;;;;13.45;5.63;;;22.60;56.00;;;;;;5196815;28;20508;-58
2021/11/14 11:11:43;;;;;;;9.40;6.30;;;22.60;56.00;;;;;;5197611;28;20044;-58
2021/11/14 11:14:27;;;;;;;10.05;6.13;;;22.60;56.00;;;;;;5184844;28;20044;-53
2021/11/14 11:17:00;;;;;;;15.85;6.68;;;22.70;56.10;;;;;;5154184;28;20646;-57
2021/11/14 11:19:32;;;;;;;10.70;5.97;;;22.70;56.10;;;;;;5195892;28;20522;-56
2021/11/14 11:22:05;;;;;;;16.50;5.80;;;22.70;56.00;;;;;;5186260;28;20068;-54
2021/11/14 11:24:48;;;;;;;10.13;5.75;;;22.70;56.10;;;;;;5191826;28;20845;-51
2021/11/14 11:27:21;;;;;;;11.10;6.28;;;22.80;56.00;;;;;;5180920;28;20052;-58
2021/11/14 11:29:54;;;;;;;11.07;5.77;;;22.80;55.90;;;;;;5170988;28;20056;-54
2021/11/14 11:32:27;;;;;;;9.82;5.47;;;22.80;55.80;;;;;;5191858;28;20049;-56
2021/11/14 11:35:01;;;;;;;8.52;5.10;;;22.80;55.80;;;;;;5193934;28;20055;-55
2021/11/14 11:37:33;;;;;;;13.40;5.80;;;22.80;55.80;;;;;;5182845;28;20048;-61
2021/11/14 11:40:06;;;;;;;9.70;5.18;;;22.90;55.80;;;;;;5197927;28;20448;-59
2021/11/14 11:42:39;;;;;;;9.15;4.82;;;22.90;55.80;;;;;;5189831;28;20047;-57
2021/11/14 11:45:16;;;;;;;11.63;5.53;;;22.90;55.80;;;;;;5193493;28;20534;-56
2021/11/14 11:47:48;;;;;;;11.05;5.32;;;22.90;55.70;;;;;;5195238;28;20490;-54
2021/11/14 11:50:24;;;;;;;16.23;5.65;;;22.90;55.70;;;;;;5181055;28;20044;-59
2021/11/14 11:52:58;;;;;;;12.50;5.43;;;23.00;56.60;;;;;;5156521;28;20646;-57
2021/11/14 11:55:38;;;;;;;14.38;5.35;;;23.00;55.70;;;;;;5162775;28;20871;-58
2021/11/14 11:58:16;;;;;;;16.60;5.72;;;23.00;55.60;;;;;;5172703;28;20251;-57
2021/11/14 12:01:00;;;;;;;13.07;5.30;;;23.10;56.30;;;;;;5172397;28;20048;-59
2021/11/14 12:03:35;;;;;;;15.40;5.32;;;23.10;55.70;;;;;;5182061;28;20056;-58
2021/11/14 12:06:21;;;;;;;14.80;6.00;;;23.10;55.60;;;;;;5176852;28;20048;-56
2021/11/14 12:08:57;;;;;;;17.88;5.68;;;23.20;55.60;;;;;;5172688;28;20100;-56
2021/11/14 12:11:39;;;;;;;21.80;6.45;;;23.10;55.60;;;;;;5126436;28;1063122;-58
2021/11/14 12:14:28;;;;;;;17.13;5.75;;;23.20;55.80;;;;;;5176165;28;20047;-55
2021/11/14 12:17:09;;;;;;;24.13;6.20;;;23.20;55.70;;;;;;5168532;28;21559;-59
2021/11/14 12:19:41;;;;;;;15.02;5.93;;;23.20;56.00;;;;;;5200231;28;20068;-54
2021/11/14 12:22:19;;;;;;;13.18;4.78;;;23.30;55.90;;;;;;5178833;28;20637;-55
2021/11/14 12:24:59;;;;;;;12.45;5.15;;;23.30;55.80;;;;;;5201623;28;20786;-57
2021/11/14 12:27:35;;;;;;;17.33;5.85;;;23.30;55.90;;;;;;5184281;28;20575;-59
2021/11/14 12:30:13;;;;;;;11.77;5.45;;;23.30;55.90;;;;;;5176007;28;20640;-56
2021/11/14 12:32:50;;;;;;;11.18;5.20;;;23.30;56.10;;;;;;5180630;28;20283;-56
2021/11/14 12:35:42;;;;;;;11.70;5.60;;;23.30;56.00;;;;;;5218687;28;22719;-57
2021/11/14 12:38:24;;;;;;;12.27;5.50;;;23.30;56.40;;;;;;5206160;28;20048;-60
2021/11/14 12:41:04;;;;;;;12.57;5.65;;;23.40;56.20;;;;;;5220430;28;20086;-54
2021/11/14 12:43:45;;;;;;;17.63;5.47;;;23.40;56.00;;;;;;5212188;28;20059;-53
2021/11/14 12:46:24;;;;;;;20.42;6.47;;;23.40;56.00;;;;;;5197927;28;20043;-58
2021/11/14 12:49:07;;;;;;;20.10;7.88;;;23.50;56.00;;;;;;5199921;28;20043;-59
2021/11/14 12:51:40;;;;;;;24.52;7.20;;;23.50;56.20;;;;;;5192166;28;20044;-61
2021/11/14 12:54:15;;;;;;;27.15;7.22;;;23.40;56.20;;;;;;5207228;28;20591;-53
2021/11/14 12:56:52;;;;;;;13.38;7.20;;;23.40;56.10;;;;;;5176888;28;20040;-56
2021/11/14 12:59:27;;;;;;;20.20;7.95;;;23.50;56.10;;;;;;5181245;28;20048;-57
2021/11/14 13:02:03;;;;;;;21.42;7.95;;;23.50;56.00;;;;;;5186958;28;20044;-59
2021/11/14 13:04:37;;;;;;;24.45;8.38;;;23.50;55.90;;;;;;5182214;28;20056;-60
2021/11/14 13:07:27;;;;;;;15.48;8.27;;;23.50;55.90;;;;;;5184254;28;22120;-59
2021/11/14 13:09:59;;;;;;;19.50;8.38;;;23.50;55.40;;;;;;5204483;28;20685;-58
2021/11/14 13:12:44;;;;;;;19.50;9.55;;;23.50;55.20;;;;;;5198519;28;20044;-54
2021/11/14 13:15:17;;;;;;;18.45;8.75;;;23.50;54.90;;;;;;5208503;28;20048;-56
2021/11/14 13:17:53;;;;;;;17.02;8.65;;;23.50;54.80;;;;;;5205269;28;20424;-52
2021/11/14 13:20:27;;;;;;;19.80;8.70;;;23.50;54.70;;;;;;5208607;28;20229;-58
2021/11/14 13:23:00;;;;;;;17.90;9.05;;;23.50;54.50;;;;;;5206944;28;20055;-57
2021/11/14 13:25:32;;;;;;;15.15;8.55;;;23.50;54.40;;;;;;5192473;28;20052;-58